createdAt,value
2023-12-02T00:03:55.687Z,110.32
2023-12-02T00:06:25.256Z,107.20
2023-12-02T00:27:40.462Z,109.13
2023-12-02T00:43:51.845Z,110.88
2023-12-02T00:50:10.099Z,116.72
2023-12-02T01:10:58.579Z,131.15
2023-12-02T01:13:28.151Z,130.52
2023-12-02T01:28:23.005Z,133.27
2023-12-02T01:30:52.465Z,135.07
2023-12-02T01:33:21.982Z,135.43
2023-12-02T01:35:51.819Z,141.25
2023-12-02T01:51:15.490Z,137.57
2023-12-02T01:53:45.013Z,146.18
2023-12-02T02:09:22.293Z,146.77
2023-12-02T02:12:11.978Z,144.07
2023-12-02T02:15:02.944Z,142.73
2023-12-02T02:17:52.689Z,143.18
2023-12-02T02:20:42.917Z,141.50
2023-12-02T02:23:32.571Z,146.80
2023-12-02T02:26:23.202Z,143.63
2023-12-02T02:29:13.016Z,144.75
2023-12-02T02:32:03.335Z,147.65
2023-12-02T02:34:52.958Z,145.98
2023-12-02T02:37:43.052Z,155.73
2023-12-02T02:40:32.778Z,157.85
2023-12-02T02:43:23.247Z,155.52
2023-12-02T02:46:12.932Z,166.20
2023-12-02T02:49:03.295Z,182.50
2023-12-02T02:51:53.062Z,190.32
2023-12-02T02:54:43.368Z,196.93
2023-12-02T02:57:33.988Z,188.05
2023-12-02T03:00:26.190Z,193.35
2023-12-02T03:03:15.778Z,199.38
2023-12-02T03:06:07.613Z,199.32
2023-12-02T03:08:57.342Z,191.10
2023-12-02T03:11:49.266Z,181.38
2023-12-02T03:14:40.526Z,167.07
2023-12-02T03:17:31.761Z,160.43
2023-12-02T03:20:21.553Z,157.60
2023-12-02T03:23:11.891Z,152.07
2023-12-02T03:26:01.848Z,154.23
2023-12-02T03:28:52.622Z,150.80
2023-12-02T03:31:42.282Z,137.30
2023-12-02T03:34:32.082Z,113.45
2023-12-02T03:37:21.778Z,119.32
2023-12-02T03:40:13.198Z,113.20
2023-12-02T03:43:02.811Z,123.50
2023-12-02T03:45:53.547Z,121.82
2023-12-02T03:48:43.273Z,93.45
2023-12-02T03:51:33.765Z,88.88
2023-12-02T03:54:23.661Z,80.15
2023-12-02T03:57:14.490Z,76.13
2023-12-02T04:00:13.490Z,66.47
2023-12-02T04:03:03.430Z,68.03
2023-12-02T04:05:54.200Z,79.38
2023-12-02T04:08:43.959Z,70.72
2023-12-02T04:11:33.801Z,66.88
2023-12-02T04:14:23.457Z,73.95
2023-12-02T04:17:13.727Z,68.90
2023-12-02T04:20:03.915Z,55.67
2023-12-02T04:22:54.318Z,57.08
2023-12-02T04:25:45.367Z,48.45
2023-12-02T04:28:36.306Z,50.00
2023-12-02T04:31:25.983Z,56.45
2023-12-02T04:34:17.078Z,51.10
2023-12-02T04:37:08.253Z,55.33
2023-12-02T04:39:58.586Z,47.60
2023-12-02T04:42:48.206Z,47.22
2023-12-02T04:45:38.958Z,44.72
2023-12-02T04:48:28.708Z,43.63
2023-12-02T04:51:19.458Z,44.92
2023-12-02T04:54:09.266Z,40.45
2023-12-02T04:56:59.515Z,40.83
2023-12-02T04:59:49.713Z,41.47
2023-12-02T05:02:40.139Z,41.72
2023-12-02T05:05:29.824Z,42.08
2023-12-02T05:08:19.781Z,45.05
2023-12-02T05:11:09.710Z,47.20
2023-12-02T05:13:59.658Z,47.72
2023-12-02T05:16:49.143Z,49.90
2023-12-02T05:19:40.104Z,44.55
2023-12-02T05:22:29.729Z,48.85
2023-12-02T05:25:19.646Z,41.08
2023-12-02T05:28:09.780Z,40.78
2023-12-02T05:31:00.432Z,41.45
2023-12-02T05:33:50.264Z,35.38
2023-12-02T05:36:40.608Z,31.17
2023-12-02T05:39:30.354Z,35.15
2023-12-02T05:42:20.619Z,35.67
2023-12-02T05:45:10.535Z,36.10
2023-12-02T05:48:00.784Z,32.78
2023-12-02T05:50:50.511Z,32.53
2023-12-02T05:53:41.386Z,33.88
2023-12-02T05:56:31.085Z,35.22
2023-12-02T05:59:22.397Z,34.40
2023-12-02T06:02:13.333Z,33.60
2023-12-02T06:05:03.684Z,33.50
2023-12-02T06:07:53.401Z,33.25
2023-12-02T06:10:43.612Z,27.35
2023-12-02T06:13:33.341Z,25.33
2023-12-02T06:16:24.036Z,26.67
2023-12-02T06:19:14.529Z,27.10
2023-12-02T06:22:05.041Z,29.10
2023-12-02T06:24:54.821Z,29.17
2023-12-02T06:27:45.290Z,27.25
2023-12-02T06:30:35.014Z,24.95
2023-12-02T06:33:25.831Z,24.83
2023-12-02T06:36:15.855Z,28.48
2023-12-02T06:39:07.472Z,25.40
2023-12-02T06:41:57.189Z,23.88
2023-12-02T06:44:47.629Z,22.48
2023-12-02T06:47:37.257Z,21.20
2023-12-02T06:50:27.127Z,23.00
2023-12-02T06:53:18.403Z,24.25
2023-12-02T06:56:18.698Z,22.63
2023-12-02T06:59:08.283Z,21.52
2023-12-02T07:01:59.411Z,19.80
2023-12-02T07:04:49.145Z,21.17
2023-12-02T07:07:39.429Z,23.13
2023-12-02T07:10:29.357Z,24.27
2023-12-02T07:13:19.596Z,23.40
2023-12-02T07:16:09.496Z,22.73
2023-12-02T07:19:00.539Z,22.50
2023-12-02T07:21:50.109Z,21.25
2023-12-02T07:24:40.028Z,21.02
2023-12-02T07:27:30.251Z,21.50
2023-12-02T07:33:13.097Z,21.35
2023-12-02T07:36:03.694Z,25.40
2023-12-02T07:38:53.914Z,25.90
2023-12-02T07:41:44.778Z,22.55
2023-12-02T07:44:36.041Z,20.55
2023-12-02T07:47:26.518Z,19.85
2023-12-02T07:50:16.696Z,21.88
2023-12-02T07:53:06.516Z,26.33
2023-12-02T07:55:56.863Z,20.90
2023-12-02T07:58:46.588Z,24.52
2023-12-02T08:01:36.969Z,19.15
2023-12-02T08:04:26.608Z,19.25
2023-12-02T08:07:16.772Z,16.25
2023-12-02T08:10:06.679Z,13.85
2023-12-02T08:12:57.302Z,13.43
2023-12-02T08:15:46.904Z,15.70
2023-12-02T08:18:38.549Z,17.02
2023-12-02T08:21:28.193Z,16.75
2023-12-02T08:24:18.706Z,15.95
2023-12-02T08:27:08.313Z,16.95
2023-12-02T08:29:58.897Z,16.73
2023-12-02T08:32:48.766Z,15.65
2023-12-02T08:35:39.046Z,15.40
2023-12-02T08:38:28.714Z,15.75
2023-12-02T08:41:19.421Z,21.92
2023-12-02T08:44:14.514Z,21.30
2023-12-02T08:47:06.495Z,20.70
2023-12-02T08:49:56.205Z,20.05
2023-12-02T08:52:46.493Z,18.23
2023-12-02T08:55:36.142Z,16.15
2023-12-02T08:58:26.641Z,17.02
2023-12-02T09:01:16.383Z,18.02
2023-12-02T09:04:06.394Z,16.35
2023-12-02T09:06:56.033Z,17.45
2023-12-02T09:09:46.370Z,17.15
2023-12-02T09:12:36.044Z,16.40
2023-12-02T09:15:25.773Z,17.35
2023-12-02T09:18:16.477Z,18.45
2023-12-02T09:21:07.708Z,17.30
2023-12-02T09:24:00.695Z,18.50
2023-12-02T09:26:51.731Z,17.90
2023-12-02T09:29:43.525Z,16.10
2023-12-02T09:32:42.297Z,18.83
2023-12-02T09:35:31.953Z,16.95
2023-12-02T09:38:22.644Z,16.15
2023-12-02T09:41:21.305Z,15.05
2023-12-02T09:44:35.330Z,14.73
2023-12-02T09:47:26.827Z,16.90
2023-12-02T09:50:22.005Z,15.57
2023-12-02T09:53:24.179Z,16.75
2023-12-02T09:56:22.539Z,16.25
2023-12-02T09:59:21.515Z,16.35
2023-12-02T10:02:29.960Z,15.98
2023-12-02T10:05:20.231Z,15.00
2023-12-02T10:08:14.969Z,16.88
2023-12-02T10:11:14.058Z,16.15
2023-12-02T10:14:11.061Z,16.65
2023-12-02T10:17:00.948Z,15.85
2023-12-02T10:19:55.155Z,15.18
2023-12-02T10:22:50.724Z,16.08
2023-12-02T10:26:10.189Z,17.80
2023-12-02T10:28:59.916Z,16.30
2023-12-02T10:31:57.262Z,14.77
2023-12-02T10:35:05.882Z,15.75
2023-12-02T10:38:01.003Z,16.48
2023-12-02T10:40:54.154Z,14.68
2023-12-02T10:43:49.843Z,15.65
2023-12-02T10:46:41.834Z,15.57
2023-12-02T10:49:33.492Z,14.70
2023-12-02T10:55:16.242Z,16.15
2023-12-02T10:58:07.015Z,15.70
2023-12-02T11:01:01.470Z,15.90
2023-12-02T11:03:57.901Z,15.40
2023-12-02T11:06:57.725Z,16.20
2023-12-02T11:09:59.577Z,16.55
2023-12-02T11:12:55.814Z,19.23
2023-12-02T11:15:51.570Z,17.38
2023-12-02T11:19:06.467Z,18.77
2023-12-02T11:21:56.178Z,18.35
2023-12-02T11:25:05.449Z,16.90
2023-12-02T11:28:01.995Z,17.80
2023-12-02T11:30:58.543Z,17.75
2023-12-02T11:34:03.634Z,20.65
2023-12-02T11:36:57.335Z,19.95
2023-12-02T11:39:52.788Z,19.05
2023-12-02T11:42:49.592Z,19.02
2023-12-02T11:45:45.692Z,19.38
2023-12-02T11:48:58.337Z,18.67
2023-12-02T11:51:52.847Z,17.55
2023-12-02T11:54:45.582Z,19.50
2023-12-02T11:57:44.902Z,24.80
2023-12-02T12:00:53.006Z,24.33
2023-12-02T12:03:59.153Z,23.02
2023-12-02T12:07:03.986Z,22.83
2023-12-02T12:10:16.481Z,22.63
2023-12-02T12:13:06.877Z,23.05
2023-12-02T12:15:57.477Z,21.73
2023-12-02T12:18:47.269Z,25.40
2023-12-02T12:21:37.238Z,27.25
2023-12-02T12:24:26.778Z,29.25
2023-12-02T12:27:17.488Z,29.23
2023-12-02T12:30:07.614Z,32.33
2023-12-02T12:33:00.441Z,33.95
2023-12-02T12:35:50.576Z,34.65
2023-12-02T12:38:41.404Z,34.25
2023-12-02T12:41:32.140Z,34.78
2023-12-02T12:44:22.935Z,34.13
2023-12-02T12:47:13.536Z,36.90
2023-12-02T12:50:06.136Z,34.72
2023-12-02T12:52:57.988Z,38.13
2023-12-02T12:55:52.303Z,36.92
2023-12-02T12:59:11.500Z,48.13
2023-12-02T13:02:09.782Z,49.80
2023-12-02T13:05:01.434Z,44.60
2023-12-02T13:08:03.328Z,45.77
2023-12-02T13:10:55.643Z,45.60
2023-12-02T13:13:50.173Z,44.10
2023-12-02T13:16:41.333Z,44.58
2023-12-02T13:19:34.501Z,45.33
2023-12-02T13:22:27.016Z,44.55
2023-12-02T13:25:31.842Z,44.15
2023-12-02T13:28:40.661Z,44.90
2023-12-02T13:31:30.532Z,47.97
2023-12-02T13:34:37.494Z,50.20
2023-12-02T13:37:31.741Z,48.60
2023-12-02T13:40:26.146Z,46.25
2023-12-02T13:43:18.175Z,49.53
2023-12-02T13:46:09.644Z,49.75
2023-12-02T13:49:07.068Z,51.90
2023-12-02T13:52:01.723Z,54.08
2023-12-02T13:55:09.566Z,52.88
2023-12-02T13:58:09.915Z,54.78
2023-12-02T14:01:05.789Z,53.42
2023-12-02T14:03:58.509Z,50.38
2023-12-02T14:07:00.828Z,50.42
2023-12-02T14:09:54.103Z,45.65
2023-12-02T14:16:00.116Z,46.05
2023-12-02T14:19:12.099Z,48.50
2023-12-02T14:22:10.176Z,50.20
2023-12-02T14:25:08.779Z,54.55
2023-12-02T14:28:08.128Z,57.17
2023-12-02T14:31:01.100Z,63.80
2023-12-02T14:34:01.275Z,63.15
2023-12-02T14:37:04.647Z,64.43
2023-12-02T14:40:04.900Z,67.32
2023-12-02T14:42:57.463Z,72.05
2023-12-02T14:48:38.262Z,71.40
2023-12-02T14:51:29.255Z,78.57
2023-12-02T14:54:19.050Z,83.22
2023-12-02T14:57:18.758Z,85.18
2023-12-02T15:00:12.615Z,86.88
2023-12-02T15:03:03.496Z,78.03
2023-12-02T15:05:53.821Z,66.72
2023-12-02T15:08:44.299Z,68.03
2023-12-02T15:11:39.999Z,76.07
2023-12-02T15:14:30.914Z,80.15
2023-12-02T15:17:20.668Z,80.88
2023-12-02T15:20:14.944Z,84.78
2023-12-02T15:23:19.858Z,81.43
2023-12-02T15:26:14.357Z,86.78
2023-12-02T15:29:06.435Z,82.85
2023-12-02T15:31:58.714Z,79.85
2023-12-02T15:34:48.818Z,79.53
2023-12-02T15:37:39.473Z,82.15
2023-12-02T15:40:29.395Z,82.40
2023-12-02T15:43:20.218Z,78.38
2023-12-02T15:46:09.913Z,72.68
2023-12-02T15:49:02.914Z,67.43
2023-12-02T15:54:42.943Z,69.20
2023-12-02T15:57:33.106Z,73.25
2023-12-02T16:00:27.503Z,76.55
2023-12-02T16:03:20.684Z,79.45
2023-12-02T16:06:11.608Z,79.82
2023-12-02T16:09:01.501Z,84.32
2023-12-02T16:11:55.436Z,70.78
2023-12-02T16:14:48.789Z,76.47
2023-12-02T16:17:39.655Z,69.35
2023-12-02T16:20:30.064Z,65.22
2023-12-02T16:23:20.609Z,66.18
2023-12-02T16:26:14.052Z,63.70
2023-12-02T16:29:03.785Z,62.40
2023-12-02T16:31:55.056Z,60.47
2023-12-02T16:34:45.676Z,59.40
2023-12-02T16:37:36.161Z,58.95
2023-12-02T16:40:26.339Z,55.45
2023-12-02T16:43:17.024Z,56.80
2023-12-02T16:46:08.293Z,56.88
2023-12-02T16:48:58.520Z,64.13
2023-12-02T16:51:48.329Z,64.57
2023-12-02T16:54:39.995Z,65.40
2023-12-02T16:57:30.294Z,70.60
2023-12-02T17:00:21.629Z,71.85
2023-12-02T17:03:12.676Z,74.68
2023-12-02T17:06:13.378Z,65.97
2023-12-02T17:09:03.255Z,68.63
2023-12-02T17:11:53.266Z,72.85
2023-12-02T17:14:43.136Z,73.90
2023-12-02T17:17:38.551Z,77.30
2023-12-02T17:20:28.906Z,75.28
2023-12-02T17:23:19.489Z,77.60
2023-12-02T17:26:11.099Z,84.88
2023-12-02T17:29:01.707Z,88.03
2023-12-02T17:31:51.309Z,90.28
2023-12-02T17:34:42.312Z,83.55
2023-12-02T17:37:31.969Z,86.72
2023-12-02T17:40:23.141Z,84.45
2023-12-02T17:43:12.976Z,82.70
2023-12-02T17:46:03.994Z,92.63
2023-12-02T17:48:53.761Z,85.90
2023-12-02T17:51:44.700Z,89.25
2023-12-02T17:54:34.506Z,92.93
2023-12-02T17:57:24.828Z,89.22
2023-12-02T18:00:14.968Z,87.82
2023-12-02T18:03:06.489Z,85.00
2023-12-02T18:05:56.481Z,86.43
2023-12-02T18:08:47.296Z,84.00
2023-12-02T18:11:37.259Z,85.53
2023-12-02T18:14:29.863Z,91.25
2023-12-02T18:17:19.876Z,89.20
2023-12-02T18:20:11.906Z,88.18
2023-12-02T18:23:01.924Z,90.43
2023-12-02T18:25:53.005Z,90.55
2023-12-02T18:28:42.716Z,91.15
2023-12-02T18:31:33.000Z,94.07
2023-12-02T18:34:22.694Z,96.60
2023-12-02T18:37:13.383Z,99.85
2023-12-02T18:40:03.071Z,96.18
2023-12-02T18:42:53.760Z,96.75
2023-12-02T18:45:43.570Z,94.70
2023-12-02T18:48:34.542Z,97.80
2023-12-02T18:51:24.329Z,95.40
2023-12-02T18:54:15.064Z,92.30
2023-12-02T18:57:05.698Z,99.25
2023-12-02T18:59:35.250Z,98.22
2023-12-02T19:02:23.698Z,96.60
2023-12-02T19:05:14.066Z,99.05
2023-12-02T19:08:03.855Z,100.93
2023-12-02T19:10:33.528Z,103.78
2023-12-02T19:13:03.081Z,101.20
2023-12-02T19:15:32.361Z,108.88
2023-12-02T19:18:01.900Z,107.00
2023-12-02T19:20:32.445Z,106.47
2023-12-02T19:23:03.364Z,106.20
2023-12-02T19:25:33.526Z,108.90
2023-12-02T19:28:03.065Z,108.45
2023-12-02T19:30:34.119Z,105.00
2023-12-02T19:33:04.628Z,106.63
2023-12-02T19:35:34.146Z,109.07
2023-12-02T19:38:04.558Z,106.13
2023-12-02T19:40:34.364Z,109.07
2023-12-02T19:43:03.956Z,106.47
2023-12-02T19:45:33.775Z,108.18
2023-12-02T19:48:03.128Z,109.70
2023-12-02T19:50:32.634Z,110.85
2023-12-02T19:53:01.751Z,109.70
2023-12-02T19:55:30.955Z,109.75
2023-12-02T19:58:00.634Z,113.55
2023-12-02T20:00:29.878Z,115.45
2023-12-02T20:02:59.200Z,111.80
2023-12-02T20:05:29.213Z,114.50
2023-12-02T20:07:58.796Z,116.85
2023-12-02T20:10:28.480Z,124.22
2023-12-02T20:12:57.842Z,131.10
2023-12-02T20:15:27.041Z,131.63
2023-12-02T20:17:56.632Z,135.80
2023-12-02T20:20:26.149Z,131.77
2023-12-02T20:22:55.455Z,124.97
2023-12-02T20:25:24.724Z,123.43
2023-12-02T20:27:54.740Z,127.05
2023-12-02T20:30:24.610Z,125.60
2023-12-02T20:32:53.728Z,125.30
2023-12-02T20:35:23.329Z,128.73
2023-12-02T20:37:52.593Z,122.53
2023-12-02T20:40:21.832Z,130.13
2023-12-02T20:42:51.107Z,126.57
2023-12-02T20:45:20.346Z,125.25
2023-12-02T20:47:49.737Z,122.95
2023-12-02T20:50:18.905Z,124.07
2023-12-02T20:52:50.517Z,122.95
2023-12-02T20:55:21.326Z,122.47
2023-12-02T20:57:50.886Z,119.05
2023-12-02T21:00:20.366Z,119.80
2023-12-02T21:02:49.566Z,121.30
2023-12-02T21:05:19.029Z,124.13
2023-12-02T21:07:48.396Z,118.28
2023-12-02T21:10:17.814Z,125.35
2023-12-02T21:12:47.314Z,120.68
2023-12-02T21:15:16.592Z,126.57
2023-12-02T21:17:45.871Z,123.72
2023-12-02T21:20:15.321Z,126.95
2023-12-02T21:22:45.605Z,130.35
2023-12-02T21:25:15.105Z,129.38
2023-12-02T21:27:47.722Z,129.98
2023-12-02T21:30:26.214Z,123.93
2023-12-02T21:32:58.671Z,125.07
2023-12-02T21:35:28.213Z,125.75
2023-12-02T21:37:57.829Z,129.35
2023-12-02T21:40:29.627Z,132.40
2023-12-02T21:42:58.926Z,130.67
2023-12-02T21:45:45.506Z,131.00
2023-12-02T21:48:33.389Z,130.00
2023-12-02T21:51:03.323Z,124.28
2023-12-02T21:53:35.568Z,125.47
2023-12-02T21:56:05.254Z,127.00
2023-12-02T21:58:37.014Z,130.57
2023-12-02T22:01:08.287Z,138.68
2023-12-02T22:03:38.988Z,140.57
2023-12-02T22:06:28.526Z,147.88
2023-12-02T22:08:59.678Z,151.07
2023-12-02T22:11:39.292Z,150.85
2023-12-02T22:14:22.754Z,149.48
2023-12-02T22:16:52.903Z,144.13
2023-12-02T22:19:22.290Z,145.80
2023-12-02T22:21:54.644Z,157.73
2023-12-02T22:24:24.681Z,145.75
2023-12-02T22:26:54.556Z,144.65
2023-12-02T22:29:26.690Z,147.88
2023-12-02T22:31:56.713Z,154.18
2023-12-02T22:34:26.203Z,156.75
2023-12-02T22:36:55.561Z,154.35
2023-12-02T22:39:25.855Z,153.52
2023-12-02T22:41:58.731Z,153.18
2023-12-02T22:44:28.178Z,158.15
2023-12-02T22:47:00.433Z,159.40
2023-12-02T22:49:33.734Z,169.25
2023-12-02T22:52:03.098Z,175.57
2023-12-02T22:54:35.530Z,167.30
2023-12-02T22:59:33.906Z,166.13
2023-12-02T23:02:03.308Z,168.85
2023-12-02T23:04:32.980Z,172.35
2023-12-02T23:07:02.756Z,168.27
2023-12-02T23:09:34.555Z,162.93
2023-12-02T23:14:39.617Z,160.70
2023-12-02T23:17:13.580Z,169.02
2023-12-02T23:19:42.947Z,167.88
2023-12-02T23:22:12.961Z,177.63
2023-12-02T23:24:42.670Z,164.93
2023-12-02T23:27:15.455Z,158.68
2023-12-02T23:29:45.062Z,161.77
2023-12-02T23:32:14.644Z,162.15
2023-12-02T23:34:45.971Z,162.63
2023-12-02T23:37:20.112Z,165.35
2023-12-02T23:39:49.525Z,171.48
2023-12-02T23:42:29.402Z,172.75
2023-12-02T23:44:58.872Z,169.85
2023-12-02T23:47:28.176Z,164.98
2023-12-02T23:49:57.554Z,172.43
2023-12-02T23:52:27.169Z,163.80
2023-12-02T23:54:56.352Z,166.10
2023-12-02T23:57:26.119Z,164.35
2023-12-02T23:59:56.946Z,165.82
